sensor_id;sensor_type;location;lat;lon;timestamp;temperature;humidity
64833;HTU21D;51290;45.060;38.948;2023-05-14T00:00:37;14.00;59.22
64833;HTU21D;51290;45.060;38.948;2023-05-14T00:03:03;13.99;59.24
64833;HTU21D;51290;45.060;38.948;2023-05-14T00:05:29;13.97;59.31
64833;HTU21D;51290;45.060;38.948;2023-05-14T00:07:55;13.97;59.39
64833;HTU21D;51290;45.060;38.948;2023-05-14T00:10:21;13.96;59.43
64833;HTU21D;51290;45.060;38.948;2023-05-14T00:12:47;13.96;59.62
64833;HTU21D;51290;45.060;38.948;2023-05-14T00:15:13;13.95;59.54
64833;HTU21D;51290;45.060;38.948;2023-05-14T00:17:39;13.93;59.51
64833;HTU21D;51290;45.060;38.948;2023-05-14T00:20:07;13.92;59.57
64833;HTU21D;51290;45.060;38.948;2023-05-14T00:22:33;13.90;59.63
64833;HTU21D;51290;45.060;38.948;2023-05-14T00:25:00;13.86;59.81
64833;HTU21D;51290;45.060;38.948;2023-05-14T00:27:26;13.84;59.77
64833;HTU21D;51290;45.060;38.948;2023-05-14T00:29:52;13.83;59.77
64833;HTU21D;51290;45.060;38.948;2023-05-14T00:32:17;13.82;59.80
64833;HTU21D;51290;45.060;38.948;2023-05-14T00:34:43;13.81;59.83
64833;HTU21D;51290;45.060;38.948;2023-05-14T00:37:09;13.79;59.86
64833;HTU21D;51290;45.060;38.948;2023-05-14T00:39:35;13.76;59.89
64833;HTU21D;51290;45.060;38.948;2023-05-14T00:42:01;13.75;59.90
64833;HTU21D;51290;45.060;38.948;2023-05-14T00:44:27;13.71;59.95
64833;HTU21D;51290;45.060;38.948;2023-05-14T00:46:53;13.68;60.22
64833;HTU21D;51290;45.060;38.948;2023-05-14T00:49:19;13.68;60.28
64833;HTU21D;51290;45.060;38.948;2023-05-14T00:51:46;13.66;60.16
64833;HTU21D;51290;45.060;38.948;2023-05-14T00:54:16;13.63;60.30
64833;HTU21D;51290;45.060;38.948;2023-05-14T00:56:44;13.62;60.28
64833;HTU21D;51290;45.060;38.948;2023-05-14T00:59:10;13.61;60.27
64833;HTU21D;51290;45.060;38.948;2023-05-14T01:01:36;13.59;60.30
64833;HTU21D;51290;45.060;38.948;2023-05-14T01:04:03;13.55;60.32
64833;HTU21D;51290;45.060;38.948;2023-05-14T01:09:09;13.52;60.36
64833;HTU21D;51290;45.060;38.948;2023-05-14T01:14:58;13.43;60.41
64833;HTU21D;51290;45.060;38.948;2023-05-14T01:17:28;13.41;60.42
64833;HTU21D;51290;45.060;38.948;2023-05-14T01:19:55;13.39;60.49
64833;HTU21D;51290;45.060;38.948;2023-05-14T01:22:22;13.38;60.54
64833;HTU21D;51290;45.060;38.948;2023-05-14T01:24:48;13.37;60.55
64833;HTU21D;51290;45.060;38.948;2023-05-14T01:27:24;13.35;60.60
64833;HTU21D;51290;45.060;38.948;2023-05-14T01:30:16;13.33;60.63
64833;HTU21D;51290;45.060;38.948;2023-05-14T01:32:47;13.31;60.64
64833;HTU21D;51290;45.060;38.948;2023-05-14T01:35:16;13.29;60.65
64833;HTU21D;51290;45.060;38.948;2023-05-14T01:37:43;13.25;60.75
64833;HTU21D;51290;45.060;38.948;2023-05-14T01:40:11;13.22;60.89
64833;HTU21D;51290;45.060;38.948;2023-05-14T01:42:38;13.21;60.88
64833;HTU21D;51290;45.060;38.948;2023-05-14T01:45:05;13.20;61.02
64833;HTU21D;51290;45.060;38.948;2023-05-14T01:47:32;13.17;60.99
64833;HTU21D;51290;45.060;38.948;2023-05-14T01:49:58;13.16;60.99
64833;HTU21D;51290;45.060;38.948;2023-05-14T01:52:23;13.14;61.00
64833;HTU21D;51290;45.060;38.948;2023-05-14T01:54:50;13.12;61.32
64833;HTU21D;51290;45.060;38.948;2023-05-14T01:57:16;13.12;61.38
64833;HTU21D;51290;45.060;38.948;2023-05-14T01:59:42;13.11;61.31
64833;HTU21D;51290;45.060;38.948;2023-05-14T02:02:08;13.10;61.34
64833;HTU21D;51290;45.060;38.948;2023-05-14T02:04:34;13.11;61.34
64833;HTU21D;51290;45.060;38.948;2023-05-14T02:07:00;13.11;61.33
64833;HTU21D;51290;45.060;38.948;2023-05-14T02:09:26;13.10;61.33
64833;HTU21D;51290;45.060;38.948;2023-05-14T02:11:52;13.11;61.38
64833;HTU21D;51290;45.060;38.948;2023-05-14T02:14:18;13.11;61.50
64833;HTU21D;51290;45.060;38.948;2023-05-14T02:16:44;13.11;61.46
64833;HTU21D;51290;45.060;38.948;2023-05-14T02:19:10;13.11;61.47
64833;HTU21D;51290;45.060;38.948;2023-05-14T02:21:36;13.12;61.45
64833;HTU21D;51290;45.060;38.948;2023-05-14T02:24:02;13.12;61.49
64833;HTU21D;51290;45.060;38.948;2023-05-14T02:26:28;13.15;61.50
64833;HTU21D;51290;45.060;38.948;2023-05-14T02:28:54;13.18;61.50
64833;HTU21D;51290;45.060;38.948;2023-05-14T02:31:20;13.20;61.48
64833;HTU21D;51290;45.060;38.948;2023-05-14T02:33:46;13.21;61.47
64833;HTU21D;51290;45.060;38.948;2023-05-14T02:36:12;13.25;61.51
64833;HTU21D;51290;45.060;38.948;2023-05-14T02:38:38;13.29;61.54
64833;HTU21D;51290;45.060;38.948;2023-05-14T02:41:04;13.33;61.55
64833;HTU21D;51290;45.060;38.948;2023-05-14T02:43:30;13.39;61.56
64833;HTU21D;51290;45.060;38.948;2023-05-14T02:45:56;13.45;61.55
64833;HTU21D;51290;45.060;38.948;2023-05-14T02:48:22;13.52;61.52
64833;HTU21D;51290;45.060;38.948;2023-05-14T02:50:49;13.60;61.51
64833;HTU21D;51290;45.060;38.948;2023-05-14T02:53:16;13.67;61.47
64833;HTU21D;51290;45.060;38.948;2023-05-14T02:55:42;13.76;61.44
64833;HTU21D;51290;45.060;38.948;2023-05-14T02:58:08;13.86;61.40
64833;HTU21D;51290;45.060;38.948;2023-05-14T03:00:35;13.97;61.34
64833;HTU21D;51290;45.060;38.948;2023-05-14T03:03:01;14.07;61.28
64833;HTU21D;51290;45.060;38.948;2023-05-14T03:05:27;14.15;61.21
64833;HTU21D;51290;45.060;38.948;2023-05-14T03:07:53;14.25;61.15
64833;HTU21D;51290;45.060;38.948;2023-05-14T03:10:19;14.32;61.09
64833;HTU21D;51290;45.060;38.948;2023-05-14T03:12:45;14.37;61.05
64833;HTU21D;51290;45.060;38.948;2023-05-14T03:15:12;14.43;61.02
64833;HTU21D;51290;45.060;38.948;2023-05-14T03:17:38;14.51;60.99
64833;HTU21D;51290;45.060;38.948;2023-05-14T03:20:04;14.58;60.93
64833;HTU21D;51290;45.060;38.948;2023-05-14T03:22:30;14.67;60.89
64833;HTU21D;51290;45.060;38.948;2023-05-14T03:24:56;14.73;60.80
64833;HTU21D;51290;45.060;38.948;2023-05-14T03:27:22;14.81;60.75
64833;HTU21D;51290;45.060;38.948;2023-05-14T03:29:48;14.86;60.68
64833;HTU21D;51290;45.060;38.948;2023-05-14T03:32:14;14.94;60.62
64833;HTU21D;51290;45.060;38.948;2023-05-14T03:34:41;14.99;60.54
64833;HTU21D;51290;45.060;38.948;2023-05-14T03:37:07;15.04;60.48
64833;HTU21D;51290;45.060;38.948;2023-05-14T03:39:33;15.11;60.46
64833;HTU21D;51290;45.060;38.948;2023-05-14T03:41:59;15.19;60.38
64833;HTU21D;51290;45.060;38.948;2023-05-14T03:44:24;15.29;60.29
64833;HTU21D;51290;45.060;38.948;2023-05-14T03:46:51;15.34;60.15
64833;HTU21D;51290;45.060;38.948;2023-05-14T03:49:18;15.40;60.11
64833;HTU21D;51290;45.060;38.948;2023-05-14T03:51:44;15.46;60.12
64833;HTU21D;51290;45.060;38.948;2023-05-14T03:54:10;15.58;60.02
64833;HTU21D;51290;45.060;38.948;2023-05-14T03:56:36;15.68;59.90
64833;HTU21D;51290;45.060;38.948;2023-05-14T03:59:02;15.78;59.74
64833;HTU21D;51290;45.060;38.948;2023-05-14T04:01:28;15.85;59.65
64833;HTU21D;51290;45.060;38.948;2023-05-14T04:03:56;15.96;59.57
64833;HTU21D;51290;45.060;38.948;2023-05-14T04:06:23;16.01;59.42
64833;HTU21D;51290;45.060;38.948;2023-05-14T04:08:49;16.06;59.29
64833;HTU21D;51290;45.060;38.948;2023-05-14T04:11:14;16.12;59.28
64833;HTU21D;51290;45.060;38.948;2023-05-14T04:13:40;16.18;59.24
64833;HTU21D;51290;45.060;38.948;2023-05-14T04:16:08;16.27;59.18
64833;HTU21D;51290;45.060;38.948;2023-05-14T04:18:34;16.37;59.12
64833;HTU21D;51290;45.060;38.948;2023-05-14T04:21:01;16.48;59.03
64833;HTU21D;51290;45.060;38.948;2023-05-14T04:23:27;16.61;58.93
64833;HTU21D;51290;45.060;38.948;2023-05-14T04:25:53;16.71;58.68
64833;HTU21D;51290;45.060;38.948;2023-05-14T04:28:19;16.80;58.64
64833;HTU21D;51290;45.060;38.948;2023-05-14T04:30:47;16.91;58.56
64833;HTU21D;51290;45.060;38.948;2023-05-14T04:33:12;17.05;58.45
64833;HTU21D;51290;45.060;38.948;2023-05-14T04:35:38;17.16;58.33
64833;HTU21D;51290;45.060;38.948;2023-05-14T04:38:04;17.28;58.16
64833;HTU21D;51290;45.060;38.948;2023-05-14T04:40:30;17.37;58.03
64833;HTU21D;51290;45.060;38.948;2023-05-14T04:42:56;17.46;57.90
64833;HTU21D;51290;45.060;38.948;2023-05-14T04:45:22;17.52;57.82
64833;HTU21D;51290;45.060;38.948;2023-05-14T04:47:48;17.61;57.72
64833;HTU21D;51290;45.060;38.948;2023-05-14T04:50:14;17.67;57.61
64833;HTU21D;51290;45.060;38.948;2023-05-14T04:52:41;17.74;57.63
64833;HTU21D;51290;45.060;38.948;2023-05-14T04:55:07;17.82;57.49
64833;HTU21D;51290;45.060;38.948;2023-05-14T04:57:33;17.89;57.35
64833;HTU21D;51290;45.060;38.948;2023-05-14T04:59:59;17.90;57.19
64833;HTU21D;51290;45.060;38.948;2023-05-14T05:02:25;17.89;57.20
64833;HTU21D;51290;45.060;38.948;2023-05-14T05:04:51;17.91;57.21
64833;HTU21D;51290;45.060;38.948;2023-05-14T05:07:17;17.96;57.27
64833;HTU21D;51290;45.060;38.948;2023-05-14T05:09:43;18.08;57.26
64833;HTU21D;51290;45.060;38.948;2023-05-14T05:12:09;18.18;57.15
64833;HTU21D;51290;45.060;38.948;2023-05-14T05:14:35;18.27;56.92
64833;HTU21D;51290;45.060;38.948;2023-05-14T05:17:01;18.32;56.85
64833;HTU21D;51290;45.060;38.948;2023-05-14T05:19:27;18.40;56.74
64833;HTU21D;51290;45.060;38.948;2023-05-14T05:21:53;18.49;56.70
64833;HTU21D;51290;45.060;38.948;2023-05-14T05:24:19;18.57;56.51
64833;HTU21D;51290;45.060;38.948;2023-05-14T05:26:45;18.67;56.40
64833;HTU21D;51290;45.060;38.948;2023-05-14T05:29:11;18.73;56.27
64833;HTU21D;51290;45.060;38.948;2023-05-14T05:31:37;18.82;56.19
64833;HTU21D;51290;45.060;38.948;2023-05-14T05:34:03;18.92;56.13
64833;HTU21D;51290;45.060;38.948;2023-05-14T05:36:29;19.03;55.99
64833;HTU21D;51290;45.060;38.948;2023-05-14T05:38:55;19.12;55.82
64833;HTU21D;51290;45.060;38.948;2023-05-14T05:41:21;19.21;55.70
64833;HTU21D;51290;45.060;38.948;2023-05-14T05:43:47;19.28;55.68
64833;HTU21D;51290;45.060;38.948;2023-05-14T05:46:13;19.36;55.58
64833;HTU21D;51290;45.060;38.948;2023-05-14T05:48:39;19.41;55.41
64833;HTU21D;51290;45.060;38.948;2023-05-14T05:51:05;19.47;55.34
64833;HTU21D;51290;45.060;38.948;2023-05-14T05:53:31;19.55;55.31
64833;HTU21D;51290;45.060;38.948;2023-05-14T05:55:57;19.63;55.17
64833;HTU21D;51290;45.060;38.948;2023-05-14T05:58:22;19.72;55.00
64833;HTU21D;51290;45.060;38.948;2023-05-14T06:00:48;19.83;54.92
64833;HTU21D;51290;45.060;38.948;2023-05-14T06:03:15;19.96;54.78
64833;HTU21D;51290;45.060;38.948;2023-05-14T06:05:41;20.02;54.59
64833;HTU21D;51290;45.060;38.948;2023-05-14T06:08:06;20.10;54.42
64833;HTU21D;51290;45.060;38.948;2023-05-14T06:10:32;20.13;54.33
64833;HTU21D;51290;45.060;38.948;2023-05-14T06:12:59;20.18;54.31
64833;HTU21D;51290;45.060;38.948;2023-05-14T06:15:25;20.25;54.23
64833;HTU21D;51290;45.060;38.948;2023-05-14T06:17:51;20.34;54.13
64833;HTU21D;51290;45.060;38.948;2023-05-14T06:20:17;20.43;53.93
64833;HTU21D;51290;45.060;38.948;2023-05-14T06:22:43;20.50;53.83
64833;HTU21D;51290;45.060;38.948;2023-05-14T06:25:10;20.58;53.65
64833;HTU21D;51290;45.060;38.948;2023-05-14T06:27:36;20.60;53.43
64833;HTU21D;51290;45.060;38.948;2023-05-14T06:30:02;20.62;53.38
64833;HTU21D;51290;45.060;38.948;2023-05-14T06:32:28;20.63;53.11
64833;HTU21D;51290;45.060;38.948;2023-05-14T06:34:54;20.57;52.95
64833;HTU21D;51290;45.060;38.948;2023-05-14T06:37:20;20.51;53.06
64833;HTU21D;51290;45.060;38.948;2023-05-14T06:39:46;20.50;53.16
64833;HTU21D;51290;45.060;38.948;2023-05-14T06:42:15;20.50;53.07
64833;HTU21D;51290;45.060;38.948;2023-05-14T06:44:41;20.48;52.94
64833;HTU21D;51290;45.060;38.948;2023-05-14T06:47:07;20.44;52.93
64833;HTU21D;51290;45.060;38.948;2023-05-14T06:49:34;20.44;52.96
64833;HTU21D;51290;45.060;38.948;2023-05-14T06:52:00;20.48;53.03
64833;HTU21D;51290;45.060;38.948;2023-05-14T06:54:26;20.61;53.02
64833;HTU21D;51290;45.060;38.948;2023-05-14T06:56:53;20.77;52.92
64833;HTU21D;51290;45.060;38.948;2023-05-14T06:59:19;20.96;52.68
64833;HTU21D;51290;45.060;38.948;2023-05-14T07:01:45;21.11;52.24
64833;HTU21D;51290;45.060;38.948;2023-05-14T07:04:11;21.20;52.09
64833;HTU21D;51290;45.060;38.948;2023-05-14T07:06:37;21.23;51.92
64833;HTU21D;51290;45.060;38.948;2023-05-14T07:09:04;21.29;51.81
64833;HTU21D;51290;45.060;38.948;2023-05-14T07:11:32;21.35;51.74
64833;HTU21D;51290;45.060;38.948;2023-05-14T07:13:58;21.35;51.43
64833;HTU21D;51290;45.060;38.948;2023-05-14T07:16:25;21.33;51.46
64833;HTU21D;51290;45.060;38.948;2023-05-14T07:18:51;21.39;51.46
64833;HTU21D;51290;45.060;38.948;2023-05-14T07:21:17;21.49;51.53
64833;HTU21D;51290;45.060;38.948;2023-05-14T07:23:43;21.63;51.37
64833;HTU21D;51290;45.060;38.948;2023-05-14T07:26:09;21.78;51.20
64833;HTU21D;51290;45.060;38.948;2023-05-14T07:28:35;21.91;50.86
64833;HTU21D;51290;45.060;38.948;2023-05-14T07:31:01;21.96;50.54
64833;HTU21D;51290;45.060;38.948;2023-05-14T07:33:29;21.92;50.40
64833;HTU21D;51290;45.060;38.948;2023-05-14T07:35:55;21.89;50.55
64833;HTU21D;51290;45.060;38.948;2023-05-14T07:38:21;21.92;50.61
64833;HTU21D;51290;45.060;38.948;2023-05-14T07:40:47;21.99;50.43
64833;HTU21D;51290;45.060;38.948;2023-05-14T07:43:13;21.94;50.11
64833;HTU21D;51290;45.060;38.948;2023-05-14T07:45:39;21.81;50.18
64833;HTU21D;51290;45.060;38.948;2023-05-14T07:48:05;21.78;50.12
64833;HTU21D;51290;45.060;38.948;2023-05-14T07:50:31;21.76;50.17
64833;HTU21D;51290;45.060;38.948;2023-05-14T07:52:57;21.78;50.17
64833;HTU21D;51290;45.060;38.948;2023-05-14T07:55:23;21.82;50.16
64833;HTU21D;51290;45.060;38.948;2023-05-14T07:57:49;21.90;50.14
64833;HTU21D;51290;45.060;38.948;2023-05-14T08:00:15;21.98;50.08
64833;HTU21D;51290;45.060;38.948;2023-05-14T08:02:42;22.09;50.07
64833;HTU21D;51290;45.060;38.948;2023-05-14T08:05:08;22.27;49.92
64833;HTU21D;51290;45.060;38.948;2023-05-14T08:07:35;22.44;49.60
64833;HTU21D;51290;45.060;38.948;2023-05-14T08:10:01;22.52;49.44
64833;HTU21D;51290;45.060;38.948;2023-05-14T08:12:27;22.54;49.05
64833;HTU21D;51290;45.060;38.948;2023-05-14T08:14:54;22.43;48.56
64833;HTU21D;51290;45.060;38.948;2023-05-14T08:17:20;22.32;48.75
64833;HTU21D;51290;45.060;38.948;2023-05-14T08:19:46;22.28;48.93
64833;HTU21D;51290;45.060;38.948;2023-05-14T08:22:14;22.32;48.93
64833;HTU21D;51290;45.060;38.948;2023-05-14T08:24:40;22.38;48.94
64833;HTU21D;51290;45.060;38.948;2023-05-14T08:27:08;22.46;48.62
64833;HTU21D;51290;45.060;38.948;2023-05-14T08:29:34;22.47;48.40
64833;HTU21D;51290;45.060;38.948;2023-05-14T08:32:00;22.48;48.40
64833;HTU21D;51290;45.060;38.948;2023-05-14T08:34:26;22.50;48.00
64833;HTU21D;51290;45.060;38.948;2023-05-14T08:36:53;22.40;47.66
64833;HTU21D;51290;45.060;38.948;2023-05-14T08:39:19;22.26;47.67
64833;HTU21D;51290;45.060;38.948;2023-05-14T08:41:45;22.18;47.98
64833;HTU21D;51290;45.060;38.948;2023-05-14T08:44:19;22.22;48.12
64833;HTU21D;51290;45.060;38.948;2023-05-14T08:46:45;22.26;47.95
64833;HTU21D;51290;45.060;38.948;2023-05-14T08:51:53;22.18;47.83
64833;HTU21D;51290;45.060;38.948;2023-05-14T08:54:19;22.04;47.75
64833;HTU21D;51290;45.060;38.948;2023-05-14T08:56:50;21.93;48.02
64833;HTU21D;51290;45.060;38.948;2023-05-14T08:59:16;21.93;48.18
64833;HTU21D;51290;45.060;38.948;2023-05-14T09:01:45;21.96;48.19
64833;HTU21D;51290;45.060;38.948;2023-05-14T09:04:19;22.01;47.74
64833;HTU21D;51290;45.060;38.948;2023-05-14T09:06:49;21.91;47.38
64833;HTU21D;51290;45.060;38.948;2023-05-14T09:09:15;21.77;47.23
64833;HTU21D;51290;45.060;38.948;2023-05-14T09:11:44;21.60;47.23
64833;HTU21D;51290;45.060;38.948;2023-05-14T09:14:11;21.45;47.25
64833;HTU21D;51290;45.060;38.948;2023-05-14T09:16:37;21.40;47.56
64833;HTU21D;51290;45.060;38.948;2023-05-14T09:19:05;21.36;47.50
64833;HTU21D;51290;45.060;38.948;2023-05-14T09:21:32;21.36;47.67
64833;HTU21D;51290;45.060;38.948;2023-05-14T09:23:59;21.38;47.42
64833;HTU21D;51290;45.060;38.948;2023-05-14T09:26:26;21.36;47.31
64833;HTU21D;51290;45.060;38.948;2023-05-14T09:28:54;21.42;47.47
64833;HTU21D;51290;45.060;38.948;2023-05-14T09:31:21;21.51;47.46
64833;HTU21D;51290;45.060;38.948;2023-05-14T09:33:50;21.61;47.26
64833;HTU21D;51290;45.060;38.948;2023-05-14T09:36:17;21.67;47.02
64833;HTU21D;51290;45.060;38.948;2023-05-14T09:38:44;21.69;46.89
64833;HTU21D;51290;45.060;38.948;2023-05-14T09:41:10;21.72;46.66
64833;HTU21D;51290;45.060;38.948;2023-05-14T09:43:36;21.78;46.79
64833;HTU21D;51290;45.060;38.948;2023-05-14T09:46:02;21.89;46.43
64833;HTU21D;51290;45.060;38.948;2023-05-14T09:48:28;21.97;46.30
64833;HTU21D;51290;45.060;38.948;2023-05-14T09:50:55;22.06;45.86
64833;HTU21D;51290;45.060;38.948;2023-05-14T09:53:21;22.04;45.37
64833;HTU21D;51290;45.060;38.948;2023-05-14T09:55:47;22.02;45.45
64833;HTU21D;51290;45.060;38.948;2023-05-14T09:58:13;22.03;45.37
64833;HTU21D;51290;45.060;38.948;2023-05-14T10:00:43;22.09;45.33
64833;HTU21D;51290;45.060;38.948;2023-05-14T10:03:12;22.16;45.42
64833;HTU21D;51290;45.060;38.948;2023-05-14T10:05:41;22.31;45.49
64833;HTU21D;51290;45.060;38.948;2023-05-14T10:10:47;22.73;45.33
64833;HTU21D;51290;45.060;38.948;2023-05-14T10:13:19;22.97;44.95
64833;HTU21D;51290;45.060;38.948;2023-05-14T10:16:07;23.15;44.64
64833;HTU21D;51290;45.060;38.948;2023-05-14T10:18:39;23.38;44.67
64833;HTU21D;51290;45.060;38.948;2023-05-14T10:21:06;23.66;44.45
64833;HTU21D;51290;45.060;38.948;2023-05-14T10:23:33;23.90;44.09
64833;HTU21D;51290;45.060;38.948;2023-05-14T10:26:03;23.91;43.97
64833;HTU21D;51290;45.060;38.948;2023-05-14T10:28:30;23.98;44.06
64833;HTU21D;51290;45.060;38.948;2023-05-14T10:30:56;24.08;44.03
64833;HTU21D;51290;45.060;38.948;2023-05-14T10:33:24;24.15;43.74
64833;HTU21D;51290;45.060;38.948;2023-05-14T10:35:55;24.25;43.71
64833;HTU21D;51290;45.060;38.948;2023-05-14T10:38:42;24.32;43.32
64833;HTU21D;51290;45.060;38.948;2023-05-14T10:41:12;24.39;43.31
64833;HTU21D;51290;45.060;38.948;2023-05-14T10:43:41;24.40;43.15
64833;HTU21D;51290;45.060;38.948;2023-05-14T10:46:09;24.36;43.23
64833;HTU21D;51290;45.060;38.948;2023-05-14T10:48:40;24.41;43.25
64833;HTU21D;51290;45.060;38.948;2023-05-14T10:51:08;24.47;43.17
64833;HTU21D;51290;45.060;38.948;2023-05-14T10:53:36;24.39;42.29
64833;HTU21D;51290;45.060;38.948;2023-05-14T10:56:10;24.21;42.52
64833;HTU21D;51290;45.060;38.948;2023-05-14T10:58:39;24.04;41.95
64833;HTU21D;51290;45.060;38.948;2023-05-14T11:01:06;23.81;41.83
64833;HTU21D;51290;45.060;38.948;2023-05-14T11:03:45;23.55;42.28
64833;HTU21D;51290;45.060;38.948;2023-05-14T11:06:14;23.40;42.67
64833;HTU21D;51290;45.060;38.948;2023-05-14T11:08:40;23.35;42.86
64833;HTU21D;51290;45.060;38.948;2023-05-14T11:11:08;23.37;43.14
64833;HTU21D;51290;45.060;38.948;2023-05-14T11:13:34;23.38;42.68
64833;HTU21D;51290;45.060;38.948;2023-05-14T11:16:01;23.34;42.84
64833;HTU21D;51290;45.060;38.948;2023-05-14T11:18:27;23.30;43.05
64833;HTU21D;51290;45.060;38.948;2023-05-14T11:21:00;23.29;43.14
64833;HTU21D;51290;45.060;38.948;2023-05-14T11:23:27;23.37;43.27
64833;HTU21D;51290;45.060;38.948;2023-05-14T11:25:54;23.46;43.16
64833;HTU21D;51290;45.060;38.948;2023-05-14T11:28:24;23.57;43.07
64833;HTU21D;51290;45.060;38.948;2023-05-14T11:30:52;23.64;43.01
64833;HTU21D;51290;45.060;38.948;2023-05-14T11:33:18;23.62;42.91
64833;HTU21D;51290;45.060;38.948;2023-05-14T11:35:45;23.61;42.92
64833;HTU21D;51290;45.060;38.948;2023-05-14T11:38:19;23.49;42.51
64833;HTU21D;51290;45.060;38.948;2023-05-14T11:40:55;23.38;42.92
64833;HTU21D;51290;45.060;38.948;2023-05-14T11:43:21;23.28;42.39
64833;HTU21D;51290;45.060;38.948;2023-05-14T11:45:53;23.13;42.60
64833;HTU21D;51290;45.060;38.948;2023-05-14T11:48:20;23.10;42.87
64833;HTU21D;51290;45.060;38.948;2023-05-14T11:50:48;23.07;42.59
64833;HTU21D;51290;45.060;38.948;2023-05-14T11:53:18;22.99;42.78
64833;HTU21D;51290;45.060;38.948;2023-05-14T11:55:45;22.90;42.65
64833;HTU21D;51290;45.060;38.948;2023-05-14T11:58:12;22.84;42.88
64833;HTU21D;51290;45.060;38.948;2023-05-14T12:00:38;22.77;42.91
64833;HTU21D;51290;45.060;38.948;2023-05-14T12:03:05;22.67;42.50
64833;HTU21D;51290;45.060;38.948;2023-05-14T12:05:31;22.60;42.87
64833;HTU21D;51290;45.060;38.948;2023-05-14T12:07:57;22.55;42.96
64833;HTU21D;51290;45.060;38.948;2023-05-14T12:10:23;22.48;42.93
64833;HTU21D;51290;45.060;38.948;2023-05-14T12:12:49;22.41;43.04
64833;HTU21D;51290;45.060;38.948;2023-05-14T12:15:16;22.35;43.17
64833;HTU21D;51290;45.060;38.948;2023-05-14T12:17:48;22.28;43.03
64833;HTU21D;51290;45.060;38.948;2023-05-14T12:20:15;22.20;43.04
64833;HTU21D;51290;45.060;38.948;2023-05-14T12:22:41;22.11;43.26
64833;HTU21D;51290;45.060;38.948;2023-05-14T12:25:11;22.05;43.39
64833;HTU21D;51290;45.060;38.948;2023-05-14T12:27:43;22.01;43.41
64833;HTU21D;51290;45.060;38.948;2023-05-14T12:30:11;21.95;43.43
64833;HTU21D;51290;45.060;38.948;2023-05-14T12:32:37;21.93;43.45
64833;HTU21D;51290;45.060;38.948;2023-05-14T12:35:06;21.90;43.11
64833;HTU21D;51290;45.060;38.948;2023-05-14T12:37:32;21.88;43.24
64833;HTU21D;51290;45.060;38.948;2023-05-14T12:40:02;21.88;43.26
64833;HTU21D;51290;45.060;38.948;2023-05-14T12:42:27;21.88;42.85
64833;HTU21D;51290;45.060;38.948;2023-05-14T12:44:53;21.88;42.84
64833;HTU21D;51290;45.060;38.948;2023-05-14T12:47:19;21.88;42.98
64833;HTU21D;51290;45.060;38.948;2023-05-14T12:49:45;21.92;43.11
64833;HTU21D;51290;45.060;38.948;2023-05-14T12:52:11;21.97;42.74
64833;HTU21D;51290;45.060;38.948;2023-05-14T12:54:37;21.98;42.74
64833;HTU21D;51290;45.060;38.948;2023-05-14T12:57:05;21.98;42.81
64833;HTU21D;51290;45.060;38.948;2023-05-14T12:59:31;22.02;42.93
64833;HTU21D;51290;45.060;38.948;2023-05-14T13:01:56;22.08;42.97
64833;HTU21D;51290;45.060;38.948;2023-05-14T13:04:23;22.13;42.96
64833;HTU21D;51290;45.060;38.948;2023-05-14T13:06:49;22.19;42.99
64833;HTU21D;51290;45.060;38.948;2023-05-14T13:09:15;22.23;42.90
64833;HTU21D;51290;45.060;38.948;2023-05-14T13:11:41;22.24;42.94
64833;HTU21D;51290;45.060;38.948;2023-05-14T13:14:07;22.23;42.97
64833;HTU21D;51290;45.060;38.948;2023-05-14T13:16:33;22.23;43.02
64833;HTU21D;51290;45.060;38.948;2023-05-14T13:18:59;22.22;42.98
64833;HTU21D;51290;45.060;38.948;2023-05-14T13:21:25;22.20;42.97
64833;HTU21D;51290;45.060;38.948;2023-05-14T13:23:51;22.13;42.90
64833;HTU21D;51290;45.060;38.948;2023-05-14T13:26:17;22.08;42.98
64833;HTU21D;51290;45.060;38.948;2023-05-14T13:28:43;22.05;42.85
64833;HTU21D;51290;45.060;38.948;2023-05-14T13:31:10;21.99;42.97
64833;HTU21D;51290;45.060;38.948;2023-05-14T13:33:40;21.99;42.87
64833;HTU21D;51290;45.060;38.948;2023-05-14T13:36:07;21.96;42.98
64833;HTU21D;51290;45.060;38.948;2023-05-14T13:38:33;21.97;43.18
64833;HTU21D;51290;45.060;38.948;2023-05-14T13:41:00;22.04;43.32
64833;HTU21D;51290;45.060;38.948;2023-05-14T13:43:30;22.11;43.34
64833;HTU21D;51290;45.060;38.948;2023-05-14T13:45:56;22.21;43.31
64833;HTU21D;51290;45.060;38.948;2023-05-14T13:48:23;22.27;43.35
64833;HTU21D;51290;45.060;38.948;2023-05-14T13:50:49;22.33;43.30
64833;HTU21D;51290;45.060;38.948;2023-05-14T13:53:20;22.40;43.26
64833;HTU21D;51290;45.060;38.948;2023-05-14T13:55:46;22.51;43.31
64833;HTU21D;51290;45.060;38.948;2023-05-14T13:58:12;22.63;43.16
64833;HTU21D;51290;45.060;38.948;2023-05-14T14:00:38;22.69;43.07
64833;HTU21D;51290;45.060;38.948;2023-05-14T14:03:06;22.78;43.06
64833;HTU21D;51290;45.060;38.948;2023-05-14T14:05:33;22.84;43.03
64833;HTU21D;51290;45.060;38.948;2023-05-14T14:08:00;22.85;42.89
64833;HTU21D;51290;45.060;38.948;2023-05-14T14:10:26;22.83;42.74
64833;HTU21D;51290;45.060;38.948;2023-05-14T14:12:51;22.81;42.84
64833;HTU21D;51290;45.060;38.948;2023-05-14T14:15:17;22.80;42.91
64833;HTU21D;51290;45.060;38.948;2023-05-14T14:17:43;22.79;42.92
64833;HTU21D;51290;45.060;38.948;2023-05-14T14:20:10;22.71;42.72
64833;HTU21D;51290;45.060;38.948;2023-05-14T14:22:36;22.66;42.81
64833;HTU21D;51290;45.060;38.948;2023-05-14T14:25:02;22.55;43.02
64833;HTU21D;51290;45.060;38.948;2023-05-14T14:27:28;22.48;42.98
64833;HTU21D;51290;45.060;38.948;2023-05-14T14:30:00;22.41;43.10
64833;HTU21D;51290;45.060;38.948;2023-05-14T14:32:26;22.38;43.22
64833;HTU21D;51290;45.060;38.948;2023-05-14T14:34:53;22.35;43.21
64833;HTU21D;51290;45.060;38.948;2023-05-14T14:37:19;22.32;43.26
64833;HTU21D;51290;45.060;38.948;2023-05-14T14:39:45;22.23;43.29
64833;HTU21D;51290;45.060;38.948;2023-05-14T14:42:11;22.16;43.36
64833;HTU21D;51290;45.060;38.948;2023-05-14T14:44:37;22.06;43.37
64833;HTU21D;51290;45.060;38.948;2023-05-14T14:47:03;21.95;43.46
64833;HTU21D;51290;45.060;38.948;2023-05-14T14:49:30;21.81;43.43
64833;HTU21D;51290;45.060;38.948;2023-05-14T14:51:57;21.50;43.40
64833;HTU21D;51290;45.060;38.948;2023-05-14T14:54:23;21.06;43.33
64833;HTU21D;51290;45.060;38.948;2023-05-14T14:56:49;20.58;43.81
64833;HTU21D;51290;45.060;38.948;2023-05-14T14:59:17;20.00;44.92
64833;HTU21D;51290;45.060;38.948;2023-05-14T15:01:43;19.35;46.47
64833;HTU21D;51290;45.060;38.948;2023-05-14T15:04:09;18.56;47.98
64833;HTU21D;51290;45.060;38.948;2023-05-14T15:06:35;17.72;48.82
64833;HTU21D;51290;45.060;38.948;2023-05-14T15:09:01;16.91;50.88
64833;HTU21D;51290;45.060;38.948;2023-05-14T15:11:27;16.15;52.27